Little Plymouth, Virginia
Current Conditions -  °F | °C
As of 4:15 AM on Wednesday 22 Oct 2014 (Local Time) from KFYJ Reporting Station
Overcast Overcast  
Wind Chill: 56°   Ceiling: 2200
Heat Index: 56°   Visibility: 10mi
Dew Point: 51°   Wind: 6mph
Humidity: 84%   Direction: 300°WNW
Pressure: 29.85"   Gusts: NA
Location:  37.63°N, 76.79°W
Report Text: KFYJ 220815Z AUTO 30005KT 10SM SCT010 BKN022 OVC031 13/11 A2985 RMK AO2 T01330106
Loading
Personal Weather Stations






























Interactive Weather Map
Tropical Storm Tracking
New forecast layout! Learn more

10-Day Weather Forecast

Advertisements
Track Severe Weather on mobile